sensor_id;sensor_type;location;lat;lon;timestamp;pressure;altitude;pressure_sealevel;temperature;humidity
63006;BME280;53704;52.532;6.426;2024-02-23T00:01:24;98489.69;;;3.52;100.00
63006;BME280;53704;52.532;6.426;2024-02-23T00:03:50;98497.66;;;3.52;100.00
63006;BME280;53704;52.532;6.426;2024-02-23T00:06:16;98507.09;;;3.62;100.00
63006;BME280;53704;52.532;6.426;2024-02-23T00:08:41;98506.22;;;3.39;100.00
63006;BME280;53704;52.532;6.426;2024-02-23T00:11:07;98517.84;;;3.38;100.00
63006;BME280;53704;52.532;6.426;2024-02-23T00:13:32;98525.66;;;3.39;100.00
63006;BME280;53704;52.532;6.426;2024-02-23T00:15:58;98539.59;;;3.41;100.00
63006;BME280;53704;52.532;6.426;2024-02-23T00:18:23;98534.16;;;3.35;100.00
63006;BME280;53704;52.532;6.426;2024-02-23T00:20:49;98559.28;;;3.32;100.00
63006;BME280;53704;52.532;6.426;2024-02-23T00:23:14;98559.31;;;3.24;100.00
63006;BME280;53704;52.532;6.426;2024-02-23T00:25:40;98564.50;;;3.09;100.00
63006;BME280;53704;52.532;6.426;2024-02-23T00:28:06;98568.34;;;3.15;100.00
63006;BME280;53704;52.532;6.426;2024-02-23T00:30:31;98592.44;;;3.13;100.00
63006;BME280;53704;52.532;6.426;2024-02-23T00:32:57;98592.56;;;3.20;100.00
63006;BME280;53704;52.532;6.426;2024-02-23T00:35:22;98599.78;;;2.95;100.00
63006;BME280;53704;52.532;6.426;2024-02-23T00:37:48;98609.09;;;2.82;100.00
63006;BME280;53704;52.532;6.426;2024-02-23T00:40:13;98591.66;;;2.80;100.00
63006;BME280;53704;52.532;6.426;2024-02-23T00:42:38;98606.78;;;2.71;100.00
63006;BME280;53704;52.532;6.426;2024-02-23T00:45:04;98602.66;;;2.60;100.00
63006;BME280;53704;52.532;6.426;2024-02-23T00:47:30;98595.50;;;2.77;100.00
63006;BME280;53704;52.532;6.426;2024-02-23T00:49:55;98595.00;;;2.65;100.00
63006;BME280;53704;52.532;6.426;2024-02-23T00:52:21;98586.84;;;2.75;100.00
63006;BME280;53704;52.532;6.426;2024-02-23T00:54:46;98587.47;;;2.94;100.00
63006;BME280;53704;52.532;6.426;2024-02-23T00:57:12;98600.25;;;2.98;100.00
63006;BME280;53704;52.532;6.426;2024-02-23T00:59:37;98603.59;;;2.92;100.00
63006;BME280;53704;52.532;6.426;2024-02-23T01:02:02;98594.94;;;2.98;100.00
63006;BME280;53704;52.532;6.426;2024-02-23T01:04:28;98590.09;;;3.02;100.00
63006;BME280;53704;52.532;6.426;2024-02-23T01:06:53;98602.91;;;3.15;100.00
63006;BME280;53704;52.532;6.426;2024-02-23T01:09:19;98614.84;;;3.11;100.00
63006;BME280;53704;52.532;6.426;2024-02-23T01:11:48;98608.88;;;3.17;100.00
63006;BME280;53704;52.532;6.426;2024-02-23T01:14:13;98612.84;;;3.13;100.00
63006;BME280;53704;52.532;6.426;2024-02-23T01:16:39;98616.19;;;3.15;100.00
63006;BME280;53704;52.532;6.426;2024-02-23T01:19:04;98624.69;;;3.10;100.00
63006;BME280;53704;52.532;6.426;2024-02-23T01:21:30;98636.94;;;3.11;100.00
63006;BME280;53704;52.532;6.426;2024-02-23T01:23:55;98629.66;;;3.13;100.00
63006;BME280;53704;52.532;6.426;2024-02-23T01:26:22;98625.94;;;3.22;100.00
63006;BME280;53704;52.532;6.426;2024-02-23T01:28:48;98632.56;;;3.35;100.00
63006;BME280;53704;52.532;6.426;2024-02-23T01:31:13;98639.25;;;3.22;100.00
63006;BME280;53704;52.532;6.426;2024-02-23T01:33:39;98646.03;;;3.33;100.00
63006;BME280;53704;52.532;6.426;2024-02-23T01:36:05;98651.06;;;3.20;100.00
63006;BME280;53704;52.532;6.426;2024-02-23T01:38:31;98660.38;;;3.16;100.00
63006;BME280;53704;52.532;6.426;2024-02-23T01:40:58;98667.84;;;3.20;100.00
63006;BME280;53704;52.532;6.426;2024-02-23T01:43:24;98672.16;;;3.21;100.00
63006;BME280;53704;52.532;6.426;2024-02-23T01:45:49;98666.84;;;3.21;100.00
63006;BME280;53704;52.532;6.426;2024-02-23T01:48:15;98671.66;;;3.26;100.00
63006;BME280;53704;52.532;6.426;2024-02-23T01:50:42;98674.31;;;3.26;100.00
63006;BME280;53704;52.532;6.426;2024-02-23T01:53:08;98681.78;;;3.31;100.00
63006;BME280;53704;52.532;6.426;2024-02-23T01:55:36;98687.94;;;3.31;100.00
63006;BME280;53704;52.532;6.426;2024-02-23T01:58:04;98693.28;;;3.23;100.00
63006;BME280;53704;52.532;6.426;2024-02-23T02:00:29;98684.44;;;3.22;100.00
63006;BME280;53704;52.532;6.426;2024-02-23T02:02:55;98698.09;;;3.28;100.00
63006;BME280;53704;52.532;6.426;2024-02-23T02:05:20;98688.94;;;3.22;100.00
63006;BME280;53704;52.532;6.426;2024-02-23T02:07:47;98700.41;;;3.14;100.00
63006;BME280;53704;52.532;6.426;2024-02-23T02:10:16;98691.78;;;3.20;100.00
63006;BME280;53704;52.532;6.426;2024-02-23T02:12:42;98694.25;;;3.22;100.00
63006;BME280;53704;52.532;6.426;2024-02-23T02:15:08;98705.56;;;3.32;100.00
63006;BME280;53704;52.532;6.426;2024-02-23T02:17:34;98700.72;;;3.36;100.00
63006;BME280;53704;52.532;6.426;2024-02-23T02:20:02;98707.88;;;3.35;100.00
63006;BME280;53704;52.532;6.426;2024-02-23T02:22:32;98710.38;;;3.37;100.00
63006;BME280;53704;52.532;6.426;2024-02-23T02:24:57;98721.31;;;3.42;100.00
63006;BME280;53704;52.532;6.426;2024-02-23T02:27:22;98724.31;;;3.39;100.00
63006;BME280;53704;52.532;6.426;2024-02-23T02:29:50;98732.31;;;3.31;100.00
63006;BME280;53704;52.532;6.426;2024-02-23T02:32:16;98748.13;;;3.32;100.00
63006;BME280;53704;52.532;6.426;2024-02-23T02:34:42;98742.28;;;3.29;100.00
63006;BME280;53704;52.532;6.426;2024-02-23T02:37:07;98738.97;;;3.18;100.00
63006;BME280;53704;52.532;6.426;2024-02-23T02:39:33;98730.66;;;3.30;100.00
63006;BME280;53704;52.532;6.426;2024-02-23T02:41:58;98733.31;;;3.21;100.00
63006;BME280;53704;52.532;6.426;2024-02-23T02:44:24;98757.94;;;3.15;100.00
63006;BME280;53704;52.532;6.426;2024-02-23T02:46:49;98748.59;;;3.11;100.00
63006;BME280;53704;52.532;6.426;2024-02-23T02:49:14;98741.97;;;3.15;100.00
63006;BME280;53704;52.532;6.426;2024-02-23T02:51:40;98755.09;;;3.17;100.00
63006;BME280;53704;52.532;6.426;2024-02-23T02:54:05;98760.41;;;3.17;100.00
63006;BME280;53704;52.532;6.426;2024-02-23T02:56:31;98765.75;;;3.17;100.00
63006;BME280;53704;52.532;6.426;2024-02-23T02:58:56;98761.72;;;3.21;100.00
63006;BME280;53704;52.532;6.426;2024-02-23T03:01:22;98759.75;;;3.15;100.00
63006;BME280;53704;52.532;6.426;2024-02-23T03:03:47;98756.91;;;3.16;100.00
63006;BME280;53704;52.532;6.426;2024-02-23T03:06:12;98760.59;;;3.15;100.00
63006;BME280;53704;52.532;6.426;2024-02-23T03:08:38;98766.88;;;3.22;100.00
63006;BME280;53704;52.532;6.426;2024-02-23T03:11:03;98763.56;;;3.12;100.00
63006;BME280;53704;52.532;6.426;2024-02-23T03:13:29;98765.59;;;3.10;100.00
63006;BME280;53704;52.532;6.426;2024-02-23T03:15:54;98778.00;;;3.18;100.00
63006;BME280;53704;52.532;6.426;2024-02-23T03:18:19;98780.19;;;3.14;100.00
63006;BME280;53704;52.532;6.426;2024-02-23T03:20:45;98783.00;;;3.13;100.00
63006;BME280;53704;52.532;6.426;2024-02-23T03:23:11;98794.31;;;3.06;100.00
63006;BME280;53704;52.532;6.426;2024-02-23T03:25:36;98785.50;;;3.14;100.00
63006;BME280;53704;52.532;6.426;2024-02-23T03:28:02;98798.78;;;3.14;100.00
63006;BME280;53704;52.532;6.426;2024-02-23T03:30:27;98798.78;;;3.14;100.00
63006;BME280;53704;52.532;6.426;2024-02-23T03:32:52;98807.63;;;3.15;100.00
63006;BME280;53704;52.532;6.426;2024-02-23T03:35:18;98803.44;;;3.20;100.00
63006;BME280;53704;52.532;6.426;2024-02-23T03:37:43;98808.78;;;3.12;100.00
63006;BME280;53704;52.532;6.426;2024-02-23T03:40:09;98816.09;;;3.26;100.00
63006;BME280;53704;52.532;6.426;2024-02-23T03:42:35;98812.59;;;3.26;100.00
63006;BME280;53704;52.532;6.426;2024-02-23T03:45:00;98825.38;;;3.22;100.00
63006;BME280;53704;52.532;6.426;2024-02-23T03:47:26;98825.53;;;3.13;100.00
63006;BME280;53704;52.532;6.426;2024-02-23T03:49:51;98821.06;;;3.21;100.00
63006;BME280;53704;52.532;6.426;2024-02-23T03:52:17;98815.41;;;3.00;100.00
63006;BME280;53704;52.532;6.426;2024-02-23T03:54:42;98827.31;;;2.63;100.00
63006;BME280;53704;52.532;6.426;2024-02-23T03:57:07;98838.56;;;2.48;100.00
63006;BME280;53704;52.532;6.426;2024-02-23T03:59:36;98835.19;;;2.46;100.00
63006;BME280;53704;52.532;6.426;2024-02-23T04:02:02;98826.94;;;2.58;100.00
63006;BME280;53704;52.532;6.426;2024-02-23T04:04:28;98830.13;;;2.69;100.00
63006;BME280;53704;52.532;6.426;2024-02-23T04:06:53;98841.94;;;2.75;100.00
63006;BME280;53704;52.532;6.426;2024-02-23T04:09:19;98862.03;;;2.69;100.00
63006;BME280;53704;52.532;6.426;2024-02-23T04:11:47;98858.72;;;2.76;100.00
63006;BME280;53704;52.532;6.426;2024-02-23T04:14:13;98862.69;;;2.80;100.00
63006;BME280;53704;52.532;6.426;2024-02-23T04:16:38;98859.06;;;2.89;100.00
63006;BME280;53704;52.532;6.426;2024-02-23T04:19:04;98862.06;;;2.86;100.00
63006;BME280;53704;52.532;6.426;2024-02-23T04:21:29;98868.53;;;2.83;100.00
63006;BME280;53704;52.532;6.426;2024-02-23T04:23:54;98867.34;;;2.78;100.00
63006;BME280;53704;52.532;6.426;2024-02-23T04:26:20;98860.53;;;2.75;100.00
63006;BME280;53704;52.532;6.426;2024-02-23T04:28:45;98868.22;;;2.86;100.00
63006;BME280;53704;52.532;6.426;2024-02-23T04:31:11;98872.34;;;2.81;100.00
63006;BME280;53704;52.532;6.426;2024-02-23T04:33:37;98875.19;;;2.87;100.00
63006;BME280;53704;52.532;6.426;2024-02-23T04:36:03;98874.03;;;2.90;100.00
63006;BME280;53704;52.532;6.426;2024-02-23T04:38:30;98868.38;;;2.85;100.00
63006;BME280;53704;52.532;6.426;2024-02-23T04:40:56;98875.19;;;2.87;100.00
63006;BME280;53704;52.532;6.426;2024-02-23T04:43:22;98885.81;;;2.87;100.00
63006;BME280;53704;52.532;6.426;2024-02-23T04:45:48;98880.50;;;2.87;100.00
63006;BME280;53704;52.532;6.426;2024-02-23T04:48:13;98888.16;;;2.90;100.00
63006;BME280;53704;52.532;6.426;2024-02-23T04:50:39;98892.13;;;2.86;100.00
63006;BME280;53704;52.532;6.426;2024-02-23T04:53:04;98887.97;;;2.92;100.00
63006;BME280;53704;52.532;6.426;2024-02-23T04:55:30;98888.00;;;3.00;100.00
63006;BME280;53704;52.532;6.426;2024-02-23T04:57:55;98894.16;;;2.93;100.00
63006;BME280;53704;52.532;6.426;2024-02-23T05:00:21;98895.97;;;3.00;100.00
63006;BME280;53704;52.532;6.426;2024-02-23T05:02:46;98903.09;;;2.92;100.00
63006;BME280;53704;52.532;6.426;2024-02-23T05:05:12;98901.44;;;2.99;100.00
63006;BME280;53704;52.532;6.426;2024-02-23T05:07:37;98910.13;;;3.01;100.00
63006;BME280;53704;52.532;6.426;2024-02-23T05:10:03;98914.75;;;2.99;100.00
63006;BME280;53704;52.532;6.426;2024-02-23T05:12:29;98916.91;;;3.03;100.00
63006;BME280;53704;52.532;6.426;2024-02-23T05:14:54;98915.28;;;3.02;100.00
63006;BME280;53704;52.532;6.426;2024-02-23T05:17:20;98914.41;;;3.02;100.00
63006;BME280;53704;52.532;6.426;2024-02-23T05:19:45;98914.13;;;3.13;100.00
63006;BME280;53704;52.532;6.426;2024-02-23T05:22:12;98918.59;;;3.13;100.00
63006;BME280;53704;52.532;6.426;2024-02-23T05:24:37;98915.13;;;3.12;100.00
63006;BME280;53704;52.532;6.426;2024-02-23T05:27:03;98919.78;;;3.10;100.00
63006;BME280;53704;52.532;6.426;2024-02-23T05:29:28;98918.28;;;3.07;100.00
63006;BME280;53704;52.532;6.426;2024-02-23T05:31:54;98921.59;;;3.10;100.00
63006;BME280;53704;52.532;6.426;2024-02-23T05:34:20;98904.47;;;3.04;100.00
63006;BME280;53704;52.532;6.426;2024-02-23T05:36:46;98915.78;;;3.06;100.00
63006;BME280;53704;52.532;6.426;2024-02-23T05:39:12;98917.44;;;3.07;100.00
63006;BME280;53704;52.532;6.426;2024-02-23T05:41:38;98922.28;;;3.12;100.00
63006;BME280;53704;52.532;6.426;2024-02-23T05:44:04;98927.22;;;3.06;100.00
63006;BME280;53704;52.532;6.426;2024-02-23T05:46:34;98925.44;;;3.07;100.00
63006;BME280;53704;52.532;6.426;2024-02-23T05:49:01;98923.44;;;3.09;100.00
63006;BME280;53704;52.532;6.426;2024-02-23T05:51:28;98933.25;;;3.17;100.00
63006;BME280;53704;52.532;6.426;2024-02-23T05:53:54;98931.56;;;3.07;100.00
63006;BME280;53704;52.532;6.426;2024-02-23T05:56:19;98921.75;;;3.08;100.00
63006;BME280;53704;52.532;6.426;2024-02-23T05:58:45;98932.06;;;3.11;100.00
63006;BME280;53704;52.532;6.426;2024-02-23T06:01:10;98932.41;;;3.16;100.00
63006;BME280;53704;52.532;6.426;2024-02-23T06:03:36;98931.41;;;3.17;100.00
63006;BME280;53704;52.532;6.426;2024-02-23T06:06:01;98929.41;;;3.19;100.00
63006;BME280;53704;52.532;6.426;2024-02-23T06:08:26;98928.91;;;3.16;100.00
63006;BME280;53704;52.532;6.426;2024-02-23T06:10:52;98937.72;;;3.16;100.00
63006;BME280;53704;52.532;6.426;2024-02-23T06:13:17;98941.06;;;3.18;100.00
63006;BME280;53704;52.532;6.426;2024-02-23T06:15:43;98934.78;;;3.28;100.00
63006;BME280;53704;52.532;6.426;2024-02-23T06:18:08;98940.59;;;3.23;100.00
63006;BME280;53704;52.532;6.426;2024-02-23T06:20:34;98937.06;;;3.22;100.00
63006;BME280;53704;52.532;6.426;2024-02-23T06:22:59;98945.25;;;3.29;100.00
63006;BME280;53704;52.532;6.426;2024-02-23T06:25:25;98941.75;;;3.29;100.00
63006;BME280;53704;52.532;6.426;2024-02-23T06:27:50;98947.38;;;3.25;100.00
63006;BME280;53704;52.532;6.426;2024-02-23T06:30:15;98947.22;;;3.27;100.00
63006;BME280;53704;52.532;6.426;2024-02-23T06:32:41;98954.22;;;3.28;100.00
63006;BME280;53704;52.532;6.426;2024-02-23T06:35:08;98957.38;;;3.32;100.00
63006;BME280;53704;52.532;6.426;2024-02-23T06:37:34;98964.53;;;3.31;100.00
63006;BME280;53704;52.532;6.426;2024-02-23T06:39:59;98962.03;;;3.38;100.00
63006;BME280;53704;52.532;6.426;2024-02-23T06:42:25;98964.38;;;3.41;100.00
63006;BME280;53704;52.532;6.426;2024-02-23T06:44:50;98959.22;;;3.39;100.00
63006;BME280;53704;52.532;6.426;2024-02-23T06:47:16;98964.22;;;3.42;100.00
63006;BME280;53704;52.532;6.426;2024-02-23T06:49:42;98958.22;;;3.40;100.00
63006;BME280;53704;52.532;6.426;2024-02-23T06:52:08;98958.06;;;3.42;100.00
63006;BME280;53704;52.532;6.426;2024-02-23T06:54:34;98968.22;;;3.47;100.00
63006;BME280;53704;52.532;6.426;2024-02-23T06:56:59;98969.38;;;3.52;100.00
63006;BME280;53704;52.532;6.426;2024-02-23T06:59:25;98973.38;;;3.48;100.00
63006;BME280;53704;52.532;6.426;2024-02-23T07:01:51;98983.03;;;3.57;100.00
63006;BME280;53704;52.532;6.426;2024-02-23T07:04:17;98972.41;;;3.57;100.00
63006;BME280;53704;52.532;6.426;2024-02-23T07:06:43;98973.22;;;3.58;100.00
63006;BME280;53704;52.532;6.426;2024-02-23T07:09:09;98981.38;;;3.56;100.00
63006;BME280;53704;52.532;6.426;2024-02-23T07:11:37;98981.38;;;3.65;100.00
63006;BME280;53704;52.532;6.426;2024-02-23T07:14:02;98981.22;;;3.66;100.00
63006;BME280;53704;52.532;6.426;2024-02-23T07:16:27;98988.03;;;3.69;100.00
63006;BME280;53704;52.532;6.426;2024-02-23T07:18:53;98983.22;;;3.64;100.00
63006;BME280;53704;52.532;6.426;2024-02-23T07:21:19;98988.69;;;3.71;100.00
63006;BME280;53704;52.532;6.426;2024-02-23T07:23:45;99002.19;;;3.69;100.00
63006;BME280;53704;52.532;6.426;2024-02-23T07:26:10;99001.03;;;3.80;100.00
63006;BME280;53704;52.532;6.426;2024-02-23T07:28:36;98999.34;;;3.71;100.00
63006;BME280;53704;52.532;6.426;2024-02-23T07:31:01;99007.66;;;3.68;100.00
63006;BME280;53704;52.532;6.426;2024-02-23T07:33:27;98997.19;;;3.83;100.00
63006;BME280;53704;52.532;6.426;2024-02-23T07:35:52;99007.34;;;3.79;100.00
63006;BME280;53704;52.532;6.426;2024-02-23T07:38:17;98998.53;;;3.78;100.00
63006;BME280;53704;52.532;6.426;2024-02-23T07:40:44;98992.19;;;3.79;100.00
63006;BME280;53704;52.532;6.426;2024-02-23T07:43:09;98996.38;;;3.82;100.00
63006;BME280;53704;52.532;6.426;2024-02-23T07:45:38;99000.69;;;3.83;100.00
63006;BME280;53704;52.532;6.426;2024-02-23T07:48:04;98998.69;;;3.85;100.00
63006;BME280;53704;52.532;6.426;2024-02-23T07:50:29;98999.69;;;3.84;100.00
63006;BME280;53704;52.532;6.426;2024-02-23T07:52:55;99003.03;;;3.86;100.00
63006;BME280;53704;52.532;6.426;2024-02-23T07:55:20;98992.53;;;3.93;100.00
63006;BME280;53704;52.532;6.426;2024-02-23T07:57:47;98997.22;;;3.99;100.00
63006;BME280;53704;52.532;6.426;2024-02-23T08:00:13;98997.69;;;4.03;100.00
63006;BME280;53704;52.532;6.426;2024-02-23T08:02:39;98992.38;;;4.03;100.00
63006;BME280;53704;52.532;6.426;2024-02-23T08:05:05;98987.06;;;4.03;100.00
63006;BME280;53704;52.532;6.426;2024-02-23T08:07:31;98992.38;;;4.11;100.00
63006;BME280;53704;52.532;6.426;2024-02-23T08:09:56;98985.56;;;4.08;100.00
63006;BME280;53704;52.532;6.426;2024-02-23T08:12:22;98984.03;;;4.14;100.00
63006;BME280;53704;52.532;6.426;2024-02-23T08:14:48;98979.38;;;4.24;100.00
63006;BME280;53704;52.532;6.426;2024-02-23T08:17:15;98966.91;;;4.25;100.00
63006;BME280;53704;52.532;6.426;2024-02-23T08:19:41;98960.72;;;4.32;100.00
63006;BME280;53704;52.532;6.426;2024-02-23T08:22:06;98964.56;;;4.38;100.00
63006;BME280;53704;52.532;6.426;2024-02-23T08:24:32;98960.38;;;4.35;100.00
63006;BME280;53704;52.532;6.426;2024-02-23T08:26:57;98956.53;;;4.46;100.00
63006;BME280;53704;52.532;6.426;2024-02-23T08:29:23;98949.19;;;4.48;100.00
63006;BME280;53704;52.532;6.426;2024-02-23T08:31:48;98950.31;;;4.62;100.00
63006;BME280;53704;52.532;6.426;2024-02-23T08:34:14;98945.81;;;4.63;100.00
63006;BME280;53704;52.532;6.426;2024-02-23T08:36:39;98947.16;;;4.67;100.00
63006;BME280;53704;52.532;6.426;2024-02-23T08:39:05;98940.44;;;4.79;100.00
63006;BME280;53704;52.532;6.426;2024-02-23T08:41:30;98938.25;;;4.83;100.00
63006;BME280;53704;52.532;6.426;2024-02-23T08:43:56;98941.22;;;4.88;100.00
63006;BME280;53704;52.532;6.426;2024-02-23T08:46:21;98936.19;;;4.93;100.00
63006;BME280;53704;52.532;6.426;2024-02-23T08:48:47;98920.94;;;5.10;100.00
63006;BME280;53704;52.532;6.426;2024-02-23T08:51:12;98926.50;;;5.00;100.00
63006;BME280;53704;52.532;6.426;2024-02-23T08:53:38;98918.00;;;5.05;100.00
63006;BME280;53704;52.532;6.426;2024-02-23T08:56:05;98919.94;;;5.11;100.00
63006;BME280;53704;52.532;6.426;2024-02-23T08:58:31;98895.09;;;5.11;100.00
63006;BME280;53704;52.532;6.426;2024-02-23T09:00:57;98909.59;;;5.16;100.00
63006;BME280;53704;52.532;6.426;2024-02-23T09:03:22;98922.50;;;5.28;100.00
63006;BME280;53704;52.532;6.426;2024-02-23T09:05:48;98911.06;;;5.19;100.00
63006;BME280;53704;52.532;6.426;2024-02-23T09:08:13;98913.41;;;5.22;100.00
63006;BME280;53704;52.532;6.426;2024-02-23T09:10:39;98912.25;;;5.16;100.00
63006;BME280;53704;52.532;6.426;2024-02-23T09:13:04;98917.75;;;5.15;100.00
63006;BME280;53704;52.532;6.426;2024-02-23T09:15:30;98913.97;;;5.32;100.00
63006;BME280;53704;52.532;6.426;2024-02-23T09:17:56;98911.06;;;5.19;100.00
63006;BME280;53704;52.532;6.426;2024-02-23T09:20:21;98906.03;;;5.24;100.00
63006;BME280;53704;52.532;6.426;2024-02-23T09:22:47;98912.81;;;5.35;100.00
63006;BME280;53704;52.532;6.426;2024-02-23T09:25:13;98912.75;;;5.43;100.00
63006;BME280;53704;52.532;6.426;2024-02-23T09:27:38;98922.34;;;5.52;100.00
63006;BME280;53704;52.532;6.426;2024-02-23T09:30:10;98913.31;;;5.53;100.00
63006;BME280;53704;52.532;6.426;2024-02-23T09:32:36;98919.19;;;5.72;100.00
63006;BME280;53704;52.532;6.426;2024-02-23T09:35:01;98931.53;;;5.73;100.00
63006;BME280;53704;52.532;6.426;2024-02-23T09:37:28;98928.44;;;5.61;100.00
63006;BME280;53704;52.532;6.426;2024-02-23T09:39:54;98921.16;;;5.55;100.00
63006;BME280;53704;52.532;6.426;2024-02-23T09:42:22;98922.19;;;5.54;100.00
63006;BME280;53704;52.532;6.426;2024-02-23T09:45:00;98917.69;;;5.69;100.00
63006;BME280;53704;52.532;6.426;2024-02-23T09:47:29;98918.84;;;5.75;100.00
63006;BME280;53704;52.532;6.426;2024-02-23T09:49:55;98918.31;;;5.79;100.00
63006;BME280;53704;52.532;6.426;2024-02-23T09:52:21;98924.28;;;5.82;100.00
63006;BME280;53704;52.532;6.426;2024-02-23T09:54:48;98931.19;;;5.76;100.00
63006;BME280;53704;52.532;6.426;2024-02-23T09:57:15;98924.97;;;5.84;100.00
63006;BME280;53704;52.532;6.426;2024-02-23T09:59:41;98927.28;;;5.87;100.00
63006;BME280;53704;52.532;6.426;2024-02-23T10:02:15;98918.94;;;5.82;100.00
63006;BME280;53704;52.532;6.426;2024-02-23T10:04:41;98930.66;;;5.80;100.00
63006;BME280;53704;52.532;6.426;2024-02-23T10:07:08;98940.03;;;5.76;100.00
63006;BME280;53704;52.532;6.426;2024-02-23T10:09:34;98947.75;;;5.71;100.00
63006;BME280;53704;52.532;6.426;2024-02-23T10:11:59;98941.56;;;5.71;100.00
63006;BME280;53704;52.532;6.426;2024-02-23T10:14:25;98937.34;;;5.76;100.00
63006;BME280;53704;52.532;6.426;2024-02-23T10:16:50;98941.50;;;5.79;100.00
63006;BME280;53704;52.532;6.426;2024-02-23T10:19:19;98930.13;;;5.85;100.00
63006;BME280;53704;52.532;6.426;2024-02-23T10:21:45;98941.03;;;5.75;100.00
63006;BME280;53704;52.532;6.426;2024-02-23T10:24:11;98946.69;;;5.80;100.00
63006;BME280;53704;52.532;6.426;2024-02-23T10:26:36;98957.34;;;5.80;100.00
63006;BME280;53704;52.532;6.426;2024-02-23T10:29:01;98954.19;;;5.77;100.00
63006;BME280;53704;52.532;6.426;2024-02-23T10:31:30;98951.53;;;5.77;100.00
63006;BME280;53704;52.532;6.426;2024-02-23T10:33:59;98947.44;;;5.89;100.00
63006;BME280;53704;52.532;6.426;2024-02-23T10:36:29;98948.47;;;5.88;100.00
63006;BME280;53704;52.532;6.426;2024-02-23T10:38:56;98965.19;;;5.82;100.00
63006;BME280;53704;52.532;6.426;2024-02-23T10:41:26;98972.28;;;5.98;100.00
63006;BME280;53704;52.532;6.426;2024-02-23T10:43:53;98971.56;;;5.96;100.00
63006;BME280;53704;52.532;6.426;2024-02-23T10:46:20;98963.63;;;5.88;100.00
63006;BME280;53704;52.532;6.426;2024-02-23T10:48:48;98968.25;;;5.94;100.00
63006;BME280;53704;52.532;6.426;2024-02-23T10:51:14;98969.94;;;5.95;100.00
63006;BME280;53704;52.532;6.426;2024-02-23T10:53:40;98970.34;;;6.07;100.00
63006;BME280;53704;52.532;6.426;2024-02-23T10:56:06;98978.19;;;6.08;100.00
63006;BME280;53704;52.532;6.426;2024-02-23T10:58:32;98971.06;;;6.01;100.00
63006;BME280;53704;52.532;6.426;2024-02-23T11:01:02;98975.19;;;5.80;100.00
63006;BME280;53704;52.532;6.426;2024-02-23T11:03:31;98996.75;;;5.78;100.00
63006;BME280;53704;52.532;6.426;2024-02-23T11:05:59;99006.19;;;5.66;100.00
63006;BME280;53704;52.532;6.426;2024-02-23T11:08:28;99015.47;;;5.47;100.00
63006;BME280;53704;52.532;6.426;2024-02-23T11:10:53;99033.78;;;5.50;100.00
63006;BME280;53704;52.532;6.426;2024-02-23T11:13:30;99026.34;;;5.46;100.00
63006;BME280;53704;52.532;6.426;2024-02-23T11:16:01;99016.31;;;5.48;100.00
63006;BME280;53704;52.532;6.426;2024-02-23T11:18:27;99009.91;;;5.57;100.00
63006;BME280;53704;52.532;6.426;2024-02-23T11:20:59;98999.88;;;5.59;100.00
63006;BME280;53704;52.532;6.426;2024-02-23T11:23:25;99004.88;;;5.62;100.00
63006;BME280;53704;52.532;6.426;2024-02-23T11:28:28;99010.50;;;5.67;100.00
63006;BME280;53704;52.532;6.426;2024-02-23T11:30:54;99020.78;;;5.78;100.00
63006;BME280;53704;52.532;6.426;2024-02-23T11:33:29;99012.34;;;5.90;100.00
63006;BME280;53704;52.532;6.426;2024-02-23T11:36:22;99009.75;;;5.82;100.00
63006;BME280;53704;52.532;6.426;2024-02-23T11:38:47;99013.38;;;5.89;100.00
63006;BME280;53704;52.532;6.426;2024-02-23T11:41:13;99012.66;;;5.95;100.00
63006;BME280;53704;52.532;6.426;2024-02-23T11:43:41;99006.72;;;5.85;100.00
63006;BME280;53704;52.532;6.426;2024-02-23T11:46:07;99014.72;;;5.85;100.00
63006;BME280;53704;52.532;6.426;2024-02-23T11:48:32;99013.25;;;5.82;100.00
63006;BME280;53704;52.532;6.426;2024-02-23T11:50:58;99006.25;;;5.81;100.00
63006;BME280;53704;52.532;6.426;2024-02-23T11:53:23;99012.75;;;5.78;100.00
63006;BME280;53704;52.532;6.426;2024-02-23T11:55:50;99023.44;;;5.78;100.00
63006;BME280;53704;52.532;6.426;2024-02-23T11:58:17;99026.38;;;5.92;100.00
63006;BME280;53704;52.532;6.426;2024-02-23T12:00:43;99017.00;;;5.73;100.00
63006;BME280;53704;52.532;6.426;2024-02-23T12:03:09;99034.25;;;5.62;100.00
63006;BME280;53704;52.532;6.426;2024-02-23T12:05:35;99029.66;;;5.71;100.00
63006;BME280;53704;52.532;6.426;2024-02-23T12:08:00;99028.84;;;5.70;100.00
63006;BME280;53704;52.532;6.426;2024-02-23T12:10:26;99036.44;;;5.82;100.00
63006;BME280;53704;52.532;6.426;2024-02-23T12:12:53;99027.25;;;5.84;100.00
63006;BME280;53704;52.532;6.426;2024-02-23T12:15:19;99031.94;;;5.82;100.00
63006;BME280;53704;52.532;6.426;2024-02-23T12:17:48;99046.53;;;5.71;100.00
63006;BME280;53704;52.532;6.426;2024-02-23T12:20:14;99045.69;;;5.71;100.00
63006;BME280;53704;52.532;6.426;2024-02-23T12:22:42;99047.41;;;5.64;100.00
63006;BME280;53704;52.532;6.426;2024-02-23T12:25:08;99032.16;;;5.72;100.00
63006;BME280;53704;52.532;6.426;2024-02-23T12:27:33;99052.47;;;5.82;100.00
63006;BME280;53704;52.532;6.426;2024-02-23T12:29:59;99048.69;;;5.76;100.00
63006;BME280;53704;52.532;6.426;2024-02-23T12:32:24;99034.81;;;5.72;100.00
63006;BME280;53704;52.532;6.426;2024-02-23T12:34:50;99038.94;;;5.83;100.00
63006;BME280;53704;52.532;6.426;2024-02-23T12:37:16;99042.94;;;5.87;100.00
63006;BME280;53704;52.532;6.426;2024-02-23T12:39:42;99047.63;;;6.08;100.00
63006;BME280;53704;52.532;6.426;2024-02-23T12:42:08;99042.91;;;6.19;100.00
63006;BME280;53704;52.532;6.426;2024-02-23T12:44:33;99039.97;;;6.05;100.00
63006;BME280;53704;52.532;6.426;2024-02-23T12:46:59;99044.69;;;6.03;100.00
63006;BME280;53704;52.532;6.426;2024-02-23T12:49:24;99047.22;;;6.20;100.00
63006;BME280;53704;52.532;6.426;2024-02-23T12:51:50;99047.00;;;6.06;100.00
63006;BME280;53704;52.532;6.426;2024-02-23T12:54:15;99056.72;;;5.99;100.00
63006;BME280;53704;52.532;6.426;2024-02-23T12:56:41;99051.81;;;6.11;100.00